sensor_id;sensor_type;location;lat;lon;timestamp;P1;durP1;ratioP1;P2;durP2;ratioP2
19482;SDS011;9882;51.166;6.992;2024-01-15T00:02:36;32.75;;;9.43;;
19482;SDS011;9882;51.166;6.992;2024-01-15T00:05:04;26.73;;;9.23;;
19482;SDS011;9882;51.166;6.992;2024-01-15T00:07:33;28.65;;;9.35;;
19482;SDS011;9882;51.166;6.992;2024-01-15T00:10:04;25.63;;;8.23;;
19482;SDS011;9882;51.166;6.992;2024-01-15T00:12:33;23.88;;;9.30;;
19482;SDS011;9882;51.166;6.992;2024-01-15T00:15:02;26.05;;;8.43;;
19482;SDS011;9882;51.166;6.992;2024-01-15T00:17:31;26.83;;;10.13;;
19482;SDS011;9882;51.166;6.992;2024-01-15T00:20:00;21.20;;;8.98;;
19482;SDS011;9882;51.166;6.992;2024-01-15T00:22:28;26.80;;;10.13;;
19482;SDS011;9882;51.166;6.992;2024-01-15T00:24:57;24.52;;;9.02;;
19482;SDS011;9882;51.166;6.992;2024-01-15T00:27:27;27.55;;;11.38;;
19482;SDS011;9882;51.166;6.992;2024-01-15T00:29:56;29.73;;;10.98;;
19482;SDS011;9882;51.166;6.992;2024-01-15T00:32:24;31.30;;;9.57;;
19482;SDS011;9882;51.166;6.992;2024-01-15T00:34:53;30.08;;;9.57;;
19482;SDS011;9882;51.166;6.992;2024-01-15T00:37:21;17.73;;;6.15;;
19482;SDS011;9882;51.166;6.992;2024-01-15T00:39:49;30.00;;;10.02;;
19482;SDS011;9882;51.166;6.992;2024-01-15T00:42:18;23.73;;;9.32;;
19482;SDS011;9882;51.166;6.992;2024-01-15T00:44:48;31.02;;;9.20;;
19482;SDS011;9882;51.166;6.992;2024-01-15T00:47:17;26.48;;;7.78;;
19482;SDS011;9882;51.166;6.992;2024-01-15T00:49:46;23.85;;;9.27;;
19482;SDS011;9882;51.166;6.992;2024-01-15T00:52:14;23.58;;;8.68;;
19482;SDS011;9882;51.166;6.992;2024-01-15T00:54:43;30.45;;;10.73;;
19482;SDS011;9882;51.166;6.992;2024-01-15T00:57:11;33.03;;;9.93;;
19482;SDS011;9882;51.166;6.992;2024-01-15T00:59:40;35.03;;;9.10;;
19482;SDS011;9882;51.166;6.992;2024-01-15T01:02:10;26.27;;;8.50;;
19482;SDS011;9882;51.166;6.992;2024-01-15T01:04:38;26.02;;;10.07;;
19482;SDS011;9882;51.166;6.992;2024-01-15T01:07:07;25.17;;;9.50;;
19482;SDS011;9882;51.166;6.992;2024-01-15T01:09:35;29.80;;;9.57;;
19482;SDS011;9882;51.166;6.992;2024-01-15T01:12:04;32.65;;;9.63;;
19482;SDS011;9882;51.166;6.992;2024-01-15T01:14:33;23.33;;;8.48;;
19482;SDS011;9882;51.166;6.992;2024-01-15T01:17:01;25.05;;;8.77;;
19482;SDS011;9882;51.166;6.992;2024-01-15T01:19:31;29.80;;;10.32;;
19482;SDS011;9882;51.166;6.992;2024-01-15T01:22:00;31.20;;;9.88;;
19482;SDS011;9882;51.166;6.992;2024-01-15T01:24:28;37.22;;;10.88;;
19482;SDS011;9882;51.166;6.992;2024-01-15T01:26:57;23.73;;;8.20;;
19482;SDS011;9882;51.166;6.992;2024-01-15T01:29:25;34.33;;;12.18;;
19482;SDS011;9882;51.166;6.992;2024-01-15T01:31:54;22.08;;;8.50;;
19482;SDS011;9882;51.166;6.992;2024-01-15T01:34:23;28.67;;;9.70;;
19482;SDS011;9882;51.166;6.992;2024-01-15T01:36:53;25.92;;;9.48;;
19482;SDS011;9882;51.166;6.992;2024-01-15T01:39:21;29.65;;;9.40;;
19482;SDS011;9882;51.166;6.992;2024-01-15T01:41:50;28.88;;;9.43;;
19482;SDS011;9882;51.166;6.992;2024-01-15T01:44:18;28.63;;;9.90;;
19482;SDS011;9882;51.166;6.992;2024-01-15T01:46:47;28.67;;;10.07;;
19482;SDS011;9882;51.166;6.992;2024-01-15T01:49:15;25.85;;;7.40;;
19482;SDS011;9882;51.166;6.992;2024-01-15T01:51:45;24.90;;;8.45;;
19482;SDS011;9882;51.166;6.992;2024-01-15T01:54:16;21.98;;;8.13;;
19482;SDS011;9882;51.166;6.992;2024-01-15T01:56:47;26.08;;;9.52;;
19482;SDS011;9882;51.166;6.992;2024-01-15T01:59:17;25.23;;;9.55;;
19482;SDS011;9882;51.166;6.992;2024-01-15T02:01:46;34.38;;;8.98;;
19482;SDS011;9882;51.166;6.992;2024-01-15T02:04:16;27.52;;;10.13;;
19482;SDS011;9882;51.166;6.992;2024-01-15T02:06:47;37.75;;;10.27;;
19482;SDS011;9882;51.166;6.992;2024-01-15T02:09:18;26.10;;;9.50;;
19482;SDS011;9882;51.166;6.992;2024-01-15T02:11:46;21.23;;;7.95;;
19482;SDS011;9882;51.166;6.992;2024-01-15T02:14:15;25.30;;;9.27;;
19482;SDS011;9882;51.166;6.992;2024-01-15T02:16:44;24.60;;;9.10;;
19482;SDS011;9882;51.166;6.992;2024-01-15T02:19:14;25.10;;;9.57;;
19482;SDS011;9882;51.166;6.992;2024-01-15T02:21:43;24.77;;;9.63;;
19482;SDS011;9882;51.166;6.992;2024-01-15T02:24:13;33.42;;;10.85;;
19482;SDS011;9882;51.166;6.992;2024-01-15T02:26:42;23.55;;;8.10;;
19482;SDS011;9882;51.166;6.992;2024-01-15T02:29:10;35.75;;;9.35;;
19482;SDS011;9882;51.166;6.992;2024-01-15T02:31:40;24.92;;;8.30;;
19482;SDS011;9882;51.166;6.992;2024-01-15T02:34:08;25.20;;;9.60;;
19482;SDS011;9882;51.166;6.992;2024-01-15T02:36:37;22.90;;;8.65;;
19482;SDS011;9882;51.166;6.992;2024-01-15T02:39:05;26.73;;;8.55;;
19482;SDS011;9882;51.166;6.992;2024-01-15T02:41:36;33.22;;;11.02;;
19482;SDS011;9882;51.166;6.992;2024-01-15T02:44:05;25.75;;;8.13;;
19482;SDS011;9882;51.166;6.992;2024-01-15T02:46:33;28.88;;;9.60;;
19482;SDS011;9882;51.166;6.992;2024-01-15T02:49:02;21.80;;;8.55;;
19482;SDS011;9882;51.166;6.992;2024-01-15T02:51:30;22.90;;;8.55;;
19482;SDS011;9882;51.166;6.992;2024-01-15T02:53:59;24.25;;;8.32;;
19482;SDS011;9882;51.166;6.992;2024-01-15T02:56:27;27.05;;;7.65;;
19482;SDS011;9882;51.166;6.992;2024-01-15T02:58:57;23.58;;;8.27;;
19482;SDS011;9882;51.166;6.992;2024-01-15T03:01:26;21.58;;;8.52;;
19482;SDS011;9882;51.166;6.992;2024-01-15T03:03:54;30.70;;;9.13;;
19482;SDS011;9882;51.166;6.992;2024-01-15T03:06:24;27.95;;;8.85;;
19482;SDS011;9882;51.166;6.992;2024-01-15T03:08:52;28.98;;;8.85;;
19482;SDS011;9882;51.166;6.992;2024-01-15T03:11:21;26.05;;;7.00;;
19482;SDS011;9882;51.166;6.992;2024-01-15T03:13:49;27.95;;;9.00;;
19482;SDS011;9882;51.166;6.992;2024-01-15T03:16:19;20.38;;;7.90;;
19482;SDS011;9882;51.166;6.992;2024-01-15T03:18:48;23.00;;;8.05;;
19482;SDS011;9882;51.166;6.992;2024-01-15T03:21:16;29.45;;;9.02;;
19482;SDS011;9882;51.166;6.992;2024-01-15T03:23:45;21.38;;;7.57;;
19482;SDS011;9882;51.166;6.992;2024-01-15T03:26:13;28.17;;;9.60;;
19482;SDS011;9882;51.166;6.992;2024-01-15T03:28:42;23.77;;;7.60;;
19482;SDS011;9882;51.166;6.992;2024-01-15T03:31:11;22.95;;;8.82;;
19482;SDS011;9882;51.166;6.992;2024-01-15T03:33:40;22.10;;;7.72;;
19482;SDS011;9882;51.166;6.992;2024-01-15T03:36:09;33.40;;;7.50;;
19482;SDS011;9882;51.166;6.992;2024-01-15T03:38:39;24.27;;;7.40;;
19482;SDS011;9882;51.166;6.992;2024-01-15T03:41:08;21.05;;;6.97;;
19482;SDS011;9882;51.166;6.992;2024-01-15T03:43:37;21.20;;;7.18;;
19482;SDS011;9882;51.166;6.992;2024-01-15T03:46:06;19.08;;;7.10;;
19482;SDS011;9882;51.166;6.992;2024-01-15T03:48:35;34.60;;;7.95;;
19482;SDS011;9882;51.166;6.992;2024-01-15T03:51:05;16.92;;;6.93;;
19482;SDS011;9882;51.166;6.992;2024-01-15T03:53:33;19.35;;;6.82;;
19482;SDS011;9882;51.166;6.992;2024-01-15T03:56:02;19.33;;;7.88;;
19482;SDS011;9882;51.166;6.992;2024-01-15T03:58:31;21.23;;;7.72;;
19482;SDS011;9882;51.166;6.992;2024-01-15T04:00:59;23.52;;;8.38;;
19482;SDS011;9882;51.166;6.992;2024-01-15T04:03:28;13.50;;;5.80;;
19482;SDS011;9882;51.166;6.992;2024-01-15T04:05:57;19.48;;;6.65;;
19482;SDS011;9882;51.166;6.992;2024-01-15T04:08:26;20.98;;;7.10;;
19482;SDS011;9882;51.166;6.992;2024-01-15T04:10:55;20.45;;;6.68;;
19482;SDS011;9882;51.166;6.992;2024-01-15T04:13:23;21.55;;;7.45;;
19482;SDS011;9882;51.166;6.992;2024-01-15T04:15:52;24.98;;;8.38;;
19482;SDS011;9882;51.166;6.992;2024-01-15T04:18:20;15.05;;;5.55;;
19482;SDS011;9882;51.166;6.992;2024-01-15T04:20:49;23.33;;;7.38;;
19482;SDS011;9882;51.166;6.992;2024-01-15T04:23:17;22.05;;;7.05;;
19482;SDS011;9882;51.166;6.992;2024-01-15T04:25:47;20.30;;;6.70;;
19482;SDS011;9882;51.166;6.992;2024-01-15T04:28:15;23.73;;;7.13;;
19482;SDS011;9882;51.166;6.992;2024-01-15T04:30:44;18.42;;;7.40;;
19482;SDS011;9882;51.166;6.992;2024-01-15T04:33:12;21.45;;;7.13;;
19482;SDS011;9882;51.166;6.992;2024-01-15T04:35:41;22.13;;;7.50;;
19482;SDS011;9882;51.166;6.992;2024-01-15T04:38:09;23.13;;;7.43;;
19482;SDS011;9882;51.166;6.992;2024-01-15T04:40:38;29.35;;;8.95;;
19482;SDS011;9882;51.166;6.992;2024-01-15T04:43:09;20.60;;;6.18;;
19482;SDS011;9882;51.166;6.992;2024-01-15T04:45:37;21.98;;;6.25;;
19482;SDS011;9882;51.166;6.992;2024-01-15T04:48:06;22.80;;;7.32;;
19482;SDS011;9882;51.166;6.992;2024-01-15T04:50:34;20.15;;;6.55;;
19482;SDS011;9882;51.166;6.992;2024-01-15T04:53:03;15.73;;;6.25;;
19482;SDS011;9882;51.166;6.992;2024-01-15T04:55:31;18.20;;;5.65;;
19482;SDS011;9882;51.166;6.992;2024-01-15T04:58:00;16.90;;;5.00;;
19482;SDS011;9882;51.166;6.992;2024-01-15T05:00:30;19.30;;;6.65;;
19482;SDS011;9882;51.166;6.992;2024-01-15T05:02:58;18.55;;;6.22;;
19482;SDS011;9882;51.166;6.992;2024-01-15T05:05:27;20.55;;;6.43;;
19482;SDS011;9882;51.166;6.992;2024-01-15T05:07:55;20.73;;;7.43;;
19482;SDS011;9882;51.166;6.992;2024-01-15T05:10:23;16.90;;;5.53;;
19482;SDS011;9882;51.166;6.992;2024-01-15T05:12:52;26.65;;;7.20;;
19482;SDS011;9882;51.166;6.992;2024-01-15T05:15:20;15.02;;;5.10;;
19482;SDS011;9882;51.166;6.992;2024-01-15T05:17:50;17.33;;;6.20;;
19482;SDS011;9882;51.166;6.992;2024-01-15T05:20:19;18.05;;;5.78;;
19482;SDS011;9882;51.166;6.992;2024-01-15T05:22:47;16.02;;;5.95;;
19482;SDS011;9882;51.166;6.992;2024-01-15T05:25:16;22.08;;;6.65;;
19482;SDS011;9882;51.166;6.992;2024-01-15T05:27:44;17.27;;;5.97;;
19482;SDS011;9882;51.166;6.992;2024-01-15T05:30:13;15.93;;;5.15;;
19482;SDS011;9882;51.166;6.992;2024-01-15T05:32:43;15.40;;;5.22;;
19482;SDS011;9882;51.166;6.992;2024-01-15T05:35:13;13.70;;;5.53;;
19482;SDS011;9882;51.166;6.992;2024-01-15T05:37:43;14.93;;;4.90;;
19482;SDS011;9882;51.166;6.992;2024-01-15T05:40:12;16.33;;;6.25;;
19482;SDS011;9882;51.166;6.992;2024-01-15T05:42:41;20.75;;;6.20;;
19482;SDS011;9882;51.166;6.992;2024-01-15T05:45:10;16.13;;;5.75;;
19482;SDS011;9882;51.166;6.992;2024-01-15T05:47:38;17.73;;;6.78;;
19482;SDS011;9882;51.166;6.992;2024-01-15T05:50:07;23.73;;;6.40;;
19482;SDS011;9882;51.166;6.992;2024-01-15T05:52:38;18.73;;;6.43;;
19482;SDS011;9882;51.166;6.992;2024-01-15T05:55:07;14.70;;;5.95;;
19482;SDS011;9882;51.166;6.992;2024-01-15T05:57:36;14.35;;;6.10;;
19482;SDS011;9882;51.166;6.992;2024-01-15T06:00:05;15.15;;;5.68;;
19482;SDS011;9882;51.166;6.992;2024-01-15T06:02:36;15.93;;;6.32;;
19482;SDS011;9882;51.166;6.992;2024-01-15T06:05:05;12.23;;;5.10;;
19482;SDS011;9882;51.166;6.992;2024-01-15T06:07:34;16.20;;;5.90;;
19482;SDS011;9882;51.166;6.992;2024-01-15T06:10:04;12.18;;;4.53;;
19482;SDS011;9882;51.166;6.992;2024-01-15T06:12:34;13.73;;;5.38;;
19482;SDS011;9882;51.166;6.992;2024-01-15T06:15:03;15.73;;;5.93;;
19482;SDS011;9882;51.166;6.992;2024-01-15T06:17:32;15.18;;;4.55;;
19482;SDS011;9882;51.166;6.992;2024-01-15T06:20:00;11.52;;;4.70;;
19482;SDS011;9882;51.166;6.992;2024-01-15T06:22:30;13.77;;;5.30;;
19482;SDS011;9882;51.166;6.992;2024-01-15T06:24:59;19.15;;;5.28;;
19482;SDS011;9882;51.166;6.992;2024-01-15T06:27:29;9.48;;;4.43;;
19482;SDS011;9882;51.166;6.992;2024-01-15T06:29:57;13.13;;;4.65;;
19482;SDS011;9882;51.166;6.992;2024-01-15T06:32:26;13.20;;;5.75;;
19482;SDS011;9882;51.166;6.992;2024-01-15T06:34:54;14.65;;;4.57;;
19482;SDS011;9882;51.166;6.992;2024-01-15T06:37:23;15.80;;;5.80;;
19482;SDS011;9882;51.166;6.992;2024-01-15T06:39:51;12.20;;;4.93;;
19482;SDS011;9882;51.166;6.992;2024-01-15T06:42:20;8.70;;;4.25;;
19482;SDS011;9882;51.166;6.992;2024-01-15T06:44:50;13.80;;;5.38;;
19482;SDS011;9882;51.166;6.992;2024-01-15T06:47:19;12.10;;;5.07;;
19482;SDS011;9882;51.166;6.992;2024-01-15T06:49:47;17.58;;;5.78;;
19482;SDS011;9882;51.166;6.992;2024-01-15T06:52:17;11.35;;;4.32;;
19482;SDS011;9882;51.166;6.992;2024-01-15T06:54:45;12.45;;;4.35;;
19482;SDS011;9882;51.166;6.992;2024-01-15T06:57:14;12.45;;;5.82;;
19482;SDS011;9882;51.166;6.992;2024-01-15T06:59:43;13.63;;;4.68;;
19482;SDS011;9882;51.166;6.992;2024-01-15T07:02:12;18.30;;;5.97;;
19482;SDS011;9882;51.166;6.992;2024-01-15T07:04:41;10.27;;;5.20;;
19482;SDS011;9882;51.166;6.992;2024-01-15T07:07:10;10.50;;;4.65;;
19482;SDS011;9882;51.166;6.992;2024-01-15T07:09:38;9.63;;;4.72;;
19482;SDS011;9882;51.166;6.992;2024-01-15T07:12:07;14.73;;;5.47;;
19482;SDS011;9882;51.166;6.992;2024-01-15T07:14:35;10.98;;;4.68;;
19482;SDS011;9882;51.166;6.992;2024-01-15T07:17:04;10.73;;;4.78;;
19482;SDS011;9882;51.166;6.992;2024-01-15T07:19:34;15.05;;;5.70;;
19482;SDS011;9882;51.166;6.992;2024-01-15T07:22:03;13.48;;;4.50;;
19482;SDS011;9882;51.166;6.992;2024-01-15T07:24:32;11.70;;;5.07;;
19482;SDS011;9882;51.166;6.992;2024-01-15T07:27:01;11.07;;;3.97;;
19482;SDS011;9882;51.166;6.992;2024-01-15T07:29:31;10.80;;;5.05;;
19482;SDS011;9882;51.166;6.992;2024-01-15T07:32:03;11.73;;;4.25;;
19482;SDS011;9882;51.166;6.992;2024-01-15T07:34:32;14.43;;;5.25;;
19482;SDS011;9882;51.166;6.992;2024-01-15T07:37:02;12.65;;;5.18;;
19482;SDS011;9882;51.166;6.992;2024-01-15T07:39:30;18.50;;;5.53;;
19482;SDS011;9882;51.166;6.992;2024-01-15T07:41:59;13.65;;;4.90;;
19482;SDS011;9882;51.166;6.992;2024-01-15T07:44:27;11.68;;;5.30;;
19482;SDS011;9882;51.166;6.992;2024-01-15T07:46:56;12.93;;;5.38;;
19482;SDS011;9882;51.166;6.992;2024-01-15T07:49:24;20.48;;;5.72;;
19482;SDS011;9882;51.166;6.992;2024-01-15T07:51:53;11.82;;;5.10;;
19482;SDS011;9882;51.166;6.992;2024-01-15T07:54:23;16.95;;;5.90;;
19482;SDS011;9882;51.166;6.992;2024-01-15T07:56:55;12.70;;;4.85;;
19482;SDS011;9882;51.166;6.992;2024-01-15T07:59:24;18.60;;;7.10;;
19482;SDS011;9882;51.166;6.992;2024-01-15T08:01:53;18.00;;;5.70;;
19482;SDS011;9882;51.166;6.992;2024-01-15T08:04:22;16.67;;;6.32;;
19482;SDS011;9882;51.166;6.992;2024-01-15T08:06:50;28.48;;;6.57;;
19482;SDS011;9882;51.166;6.992;2024-01-15T08:09:19;20.15;;;6.53;;
19482;SDS011;9882;51.166;6.992;2024-01-15T08:11:49;12.90;;;5.10;;
19482;SDS011;9882;51.166;6.992;2024-01-15T08:14:18;19.25;;;6.78;;
19482;SDS011;9882;51.166;6.992;2024-01-15T08:16:46;15.40;;;6.10;;
19482;SDS011;9882;51.166;6.992;2024-01-15T08:19:15;11.15;;;4.93;;
19482;SDS011;9882;51.166;6.992;2024-01-15T08:21:43;22.25;;;6.50;;
19482;SDS011;9882;51.166;6.992;2024-01-15T08:24:12;13.18;;;5.70;;
19482;SDS011;9882;51.166;6.992;2024-01-15T08:26:40;15.30;;;6.22;;
19482;SDS011;9882;51.166;6.992;2024-01-15T08:29:10;25.92;;;6.60;;
19482;SDS011;9882;51.166;6.992;2024-01-15T08:31:39;16.45;;;6.25;;
19482;SDS011;9882;51.166;6.992;2024-01-15T08:34:07;15.65;;;6.43;;
19482;SDS011;9882;51.166;6.992;2024-01-15T08:36:36;17.02;;;6.85;;
19482;SDS011;9882;51.166;6.992;2024-01-15T08:39:04;16.00;;;6.03;;
19482;SDS011;9882;51.166;6.992;2024-01-15T08:41:33;20.52;;;6.80;;
19482;SDS011;9882;51.166;6.992;2024-01-15T08:44:02;21.35;;;7.63;;
19482;SDS011;9882;51.166;6.992;2024-01-15T08:46:32;18.83;;;7.55;;
19482;SDS011;9882;51.166;6.992;2024-01-15T08:49:01;28.05;;;9.10;;
19482;SDS011;9882;51.166;6.992;2024-01-15T08:51:30;22.52;;;7.70;;
19482;SDS011;9882;51.166;6.992;2024-01-15T08:53:59;19.60;;;7.07;;
19482;SDS011;9882;51.166;6.992;2024-01-15T08:56:27;18.55;;;7.07;;
19482;SDS011;9882;51.166;6.992;2024-01-15T08:58:55;23.30;;;7.57;;
19482;SDS011;9882;51.166;6.992;2024-01-15T09:01:24;14.93;;;5.85;;
19482;SDS011;9882;51.166;6.992;2024-01-15T09:03:54;17.25;;;6.55;;
19482;SDS011;9882;51.166;6.992;2024-01-15T09:06:23;21.80;;;7.32;;
19482;SDS011;9882;51.166;6.992;2024-01-15T09:08:51;18.42;;;6.28;;
19482;SDS011;9882;51.166;6.992;2024-01-15T09:11:20;18.73;;;7.50;;
19482;SDS011;9882;51.166;6.992;2024-01-15T09:13:48;18.00;;;6.65;;
19482;SDS011;9882;51.166;6.992;2024-01-15T09:16:18;19.05;;;6.45;;
19482;SDS011;9882;51.166;6.992;2024-01-15T09:18:47;21.30;;;7.57;;
19482;SDS011;9882;51.166;6.992;2024-01-15T09:21:17;22.25;;;8.55;;
19482;SDS011;9882;51.166;6.992;2024-01-15T09:23:45;17.98;;;6.68;;
19482;SDS011;9882;51.166;6.992;2024-01-15T09:26:14;20.27;;;7.80;;
19482;SDS011;9882;51.166;6.992;2024-01-15T09:28:42;19.20;;;7.15;;
19482;SDS011;9882;51.166;6.992;2024-01-15T09:31:11;18.98;;;8.02;;
19482;SDS011;9882;51.166;6.992;2024-01-15T09:33:39;16.52;;;6.22;;
19482;SDS011;9882;51.166;6.992;2024-01-15T09:36:08;16.13;;;6.25;;
19482;SDS011;9882;51.166;6.992;2024-01-15T09:38:38;18.63;;;6.65;;
19482;SDS011;9882;51.166;6.992;2024-01-15T09:41:08;23.02;;;7.32;;
19482;SDS011;9882;51.166;6.992;2024-01-15T09:43:36;22.98;;;6.57;;
19482;SDS011;9882;51.166;6.992;2024-01-15T09:46:06;19.98;;;8.25;;
19482;SDS011;9882;51.166;6.992;2024-01-15T09:48:35;21.08;;;6.93;;
19482;SDS011;9882;51.166;6.992;2024-01-15T09:51:05;15.98;;;5.53;;
19482;SDS011;9882;51.166;6.992;2024-01-15T09:53:35;19.48;;;7.20;;
19482;SDS011;9882;51.166;6.992;2024-01-15T09:56:06;19.98;;;7.00;;
19482;SDS011;9882;51.166;6.992;2024-01-15T09:58:34;16.75;;;6.38;;
19482;SDS011;9882;51.166;6.992;2024-01-15T10:01:03;28.77;;;7.93;;
19482;SDS011;9882;51.166;6.992;2024-01-15T10:03:33;19.92;;;6.93;;
19482;SDS011;9882;51.166;6.992;2024-01-15T10:06:02;29.92;;;7.82;;
19482;SDS011;9882;51.166;6.992;2024-01-15T10:08:32;16.38;;;6.63;;
19482;SDS011;9882;51.166;6.992;2024-01-15T10:11:01;18.58;;;7.72;;
19482;SDS011;9882;51.166;6.992;2024-01-15T10:13:32;17.52;;;6.15;;
19482;SDS011;9882;51.166;6.992;2024-01-15T10:16:02;11.88;;;5.68;;
19482;SDS011;9882;51.166;6.992;2024-01-15T10:18:30;18.70;;;7.50;;
19482;SDS011;9882;51.166;6.992;2024-01-15T10:20:59;14.70;;;5.95;;
19482;SDS011;9882;51.166;6.992;2024-01-15T10:23:29;22.98;;;7.72;;
19482;SDS011;9882;51.166;6.992;2024-01-15T10:25:59;14.30;;;5.90;;
19482;SDS011;9882;51.166;6.992;2024-01-15T10:28:29;12.95;;;5.72;;
19482;SDS011;9882;51.166;6.992;2024-01-15T10:30:59;16.17;;;5.45;;
19482;SDS011;9882;51.166;6.992;2024-01-15T10:33:28;7.93;;;4.30;;
19482;SDS011;9882;51.166;6.992;2024-01-15T10:35:57;14.52;;;5.10;;
19482;SDS011;9882;51.166;6.992;2024-01-15T10:38:28;11.65;;;5.00;;
19482;SDS011;9882;51.166;6.992;2024-01-15T10:40:56;8.25;;;4.45;;
19482;SDS011;9882;51.166;6.992;2024-01-15T10:43:25;19.80;;;4.75;;
19482;SDS011;9882;51.166;6.992;2024-01-15T10:45:54;8.25;;;3.45;;
19482;SDS011;9882;51.166;6.992;2024-01-15T10:48:24;9.13;;;3.92;;
19482;SDS011;9882;51.166;6.992;2024-01-15T10:50:55;16.58;;;4.75;;
19482;SDS011;9882;51.166;6.992;2024-01-15T10:53:24;10.55;;;4.45;;
19482;SDS011;9882;51.166;6.992;2024-01-15T10:55:53;8.43;;;4.72;;
19482;SDS011;9882;51.166;6.992;2024-01-15T10:58:22;12.75;;;4.45;;
19482;SDS011;9882;51.166;6.992;2024-01-15T11:00:51;9.98;;;4.32;;
19482;SDS011;9882;51.166;6.992;2024-01-15T11:03:19;10.43;;;5.05;;
19482;SDS011;9882;51.166;6.992;2024-01-15T11:05:50;6.95;;;3.55;;
19482;SDS011;9882;51.166;6.992;2024-01-15T11:08:18;5.00;;;2.85;;
19482;SDS011;9882;51.166;6.992;2024-01-15T11:10:50;6.07;;;2.80;;
19482;SDS011;9882;51.166;6.992;2024-01-15T11:13:19;7.40;;;3.20;;
19482;SDS011;9882;51.166;6.992;2024-01-15T11:15:56;6.88;;;3.72;;
19482;SDS011;9882;51.166;6.992;2024-01-15T11:18:26;8.15;;;3.53;;
19482;SDS011;9882;51.166;6.992;2024-01-15T11:23:52;7.03;;;3.88;;
19482;SDS011;9882;51.166;6.992;2024-01-15T11:26:27;6.82;;;3.10;;
19482;SDS011;9882;51.166;6.992;2024-01-15T11:28:56;4.93;;;2.88;;
19482;SDS011;9882;51.166;6.992;2024-01-15T11:31:26;5.82;;;3.17;;
19482;SDS011;9882;51.166;6.992;2024-01-15T11:33:56;5.05;;;2.90;;
19482;SDS011;9882;51.166;6.992;2024-01-15T11:39:40;5.25;;;2.92;;
19482;SDS011;9882;51.166;6.992;2024-01-15T11:42:11;7.07;;;3.53;;
19482;SDS011;9882;51.166;6.992;2024-01-15T11:44:39;7.80;;;2.83;;
19482;SDS011;9882;51.166;6.992;2024-01-15T11:47:08;3.72;;;3.00;;
19482;SDS011;9882;51.166;6.992;2024-01-15T11:49:53;2.13;;;1.95;;
19482;SDS011;9882;51.166;6.992;2024-01-15T11:52:31;10.32;;;3.63;;
19482;SDS011;9882;51.166;6.992;2024-01-15T11:55:05;4.57;;;2.63;;
19482;SDS011;9882;51.166;6.992;2024-01-15T11:57:42;12.80;;;4.40;;
19482;SDS011;9882;51.166;6.992;2024-01-15T12:00:14;2.92;;;2.47;;
19482;SDS011;9882;51.166;6.992;2024-01-15T12:02:43;9.32;;;3.35;;
19482;SDS011;9882;51.166;6.992;2024-01-15T12:05:13;5.07;;;3.25;;
19482;SDS011;9882;51.166;6.992;2024-01-15T12:07:42;11.43;;;2.53;;
19482;SDS011;9882;51.166;6.992;2024-01-15T12:10:13;8.55;;;3.30;;
19482;SDS011;9882;51.166;6.992;2024-01-15T12:12:53;5.68;;;3.25;;
19482;SDS011;9882;51.166;6.992;2024-01-15T12:15:28;6.90;;;3.03;;
19482;SDS011;9882;51.166;6.992;2024-01-15T12:17:58;5.25;;;3.33;;
19482;SDS011;9882;51.166;6.992;2024-01-15T12:20:29;5.60;;;2.97;;
19482;SDS011;9882;51.166;6.992;2024-01-15T12:23:00;7.30;;;3.65;;
19482;SDS011;9882;51.166;6.992;2024-01-15T12:25:32;4.85;;;2.83;;
19482;SDS011;9882;51.166;6.992;2024-01-15T12:28:01;6.97;;;3.33;;
19482;SDS011;9882;51.166;6.992;2024-01-15T12:30:30;14.23;;;3.35;;
19482;SDS011;9882;51.166;6.992;2024-01-15T12:33:01;5.80;;;2.97;;
19482;SDS011;9882;51.166;6.992;2024-01-15T12:35:30;5.13;;;2.88;;
19482;SDS011;9882;51.166;6.992;2024-01-15T12:37:59;8.70;;;3.40;;
19482;SDS011;9882;51.166;6.992;2024-01-15T12:40:30;7.63;;;4.15;;
19482;SDS011;9882;51.166;6.992;2024-01-15T12:43:01;5.72;;;3.80;;
19482;SDS011;9882;51.166;6.992;2024-01-15T12:45:29;7.13;;;3.10;;
19482;SDS011;9882;51.166;6.992;2024-01-15T12:47:58;6.07;;;3.05;;
19482;SDS011;9882;51.166;6.992;2024-01-15T12:50:28;6.22;;;3.15;;
19482;SDS011;9882;51.166;6.992;2024-01-15T12:52:56;13.85;;;5.60;;
19482;SDS011;9882;51.166;6.992;2024-01-15T12:55:26;10.40;;;4.30;;
19482;SDS011;9882;51.166;6.992;2024-01-15T12:57:56;8.95;;;3.95;;
19482;SDS011;9882;51.166;6.992;2024-01-15T13:00:24;12.95;;;4.18;;
19482;SDS011;9882;51.166;6.992;2024-01-15T13:02:53;9.02;;;3.90;;
19482;SDS011;9882;51.166;6.992;2024-01-15T13:05:24;10.43;;;3.70;;
19482;SDS011;9882;51.166;6.992;2024-01-15T13:07:54;12.65;;;5.95;;
19482;SDS011;9882;51.166;6.992;2024-01-15T13:10:23;10.90;;;4.80;;
19482;SDS011;9882;51.166;6.992;2024-01-15T13:12:52;9.45;;;4.38;;
19482;SDS011;9882;51.166;6.992;2024-01-15T13:15:22;11.95;;;4.47;;
19482;SDS011;9882;51.166;6.992;2024-01-15T13:17:50;9.77;;;4.10;;
19482;SDS011;9882;51.166;6.992;2024-01-15T13:20:19;13.88;;;4.88;;
19482;SDS011;9882;51.166;6.992;2024-01-15T13:22:48;11.55;;;4.20;;
19482;SDS011;9882;51.166;6.992;2024-01-15T13:25:17;12.88;;;4.82;;
19482;SDS011;9882;51.166;6.992;2024-01-15T13:27:49;15.10;;;4.82;;
19482;SDS011;9882;51.166;6.992;2024-01-15T13:30:19;10.20;;;4.57;;
19482;SDS011;9882;51.166;6.992;2024-01-15T13:32:49;9.93;;;4.65;;
19482;SDS011;9882;51.166;6.992;2024-01-15T13:35:17;7.38;;;3.67;;
19482;SDS011;9882;51.166;6.992;2024-01-15T13:37:46;10.27;;;3.83;;
19482;SDS011;9882;51.166;6.992;2024-01-15T13:40:15;6.75;;;3.60;;
19482;SDS011;9882;51.166;6.992;2024-01-15T13:42:46;8.63;;;3.78;;
19482;SDS011;9882;51.166;6.992;2024-01-15T13:45:15;7.20;;;3.97;;
19482;SDS011;9882;51.166;6.992;2024-01-15T13:47:59;9.13;;;4.03;;
19482;SDS011;9882;51.166;6.992;2024-01-15T13:50:32;6.65;;;3.20;;
19482;SDS011;9882;51.166;6.992;2024-01-15T13:53:02;9.43;;;4.00;;
19482;SDS011;9882;51.166;6.992;2024-01-15T13:55:31;6.55;;;3.38;;
19482;SDS011;9882;51.166;6.992;2024-01-15T13:58:02;6.60;;;3.28;;
19482;SDS011;9882;51.166;6.992;2024-01-15T14:00:38;4.03;;;3.13;;
19482;SDS011;9882;51.166;6.992;2024-01-15T14:03:08;5.65;;;2.55;;
19482;SDS011;9882;51.166;6.992;2024-01-15T14:05:37;6.95;;;3.15;;
19482;SDS011;9882;51.166;6.992;2024-01-15T14:08:05;10.38;;;4.50;;
19482;SDS011;9882;51.166;6.992;2024-01-15T14:10:34;5.65;;;3.00;;
19482;SDS011;9882;51.166;6.992;2024-01-15T14:13:12;6.65;;;3.13;;
19482;SDS011;9882;51.166;6.992;2024-01-15T14:15:40;3.90;;;2.80;;
19482;SDS011;9882;51.166;6.992;2024-01-15T14:18:10;8.38;;;2.65;;
19482;SDS011;9882;51.166;6.992;2024-01-15T14:20:39;3.13;;;2.60;;
19482;SDS011;9882;51.166;6.992;2024-01-15T14:23:08;4.65;;;3.00;;
19482;SDS011;9882;51.166;6.992;2024-01-15T14:25:36;9.95;;;3.42;;
19482;SDS011;9882;51.166;6.992;2024-01-15T14:28:06;3.80;;;2.47;;
19482;SDS011;9882;51.166;6.992;2024-01-15T14:30:34;5.55;;;3.15;;
19482;SDS011;9882;51.166;6.992;2024-01-15T14:33:03;4.28;;;2.75;;
19482;SDS011;9882;51.166;6.992;2024-01-15T14:35:33;2.45;;;1.77;;
19482;SDS011;9882;51.166;6.992;2024-01-15T14:38:01;3.72;;;2.17;;
19482;SDS011;9882;51.166;6.992;2024-01-15T14:40:30;4.45;;;2.53;;
19482;SDS011;9882;51.166;6.992;2024-01-15T14:42:59;4.53;;;2.70;;
19482;SDS011;9882;51.166;6.992;2024-01-15T14:45:29;3.72;;;2.00;;
19482;SDS011;9882;51.166;6.992;2024-01-15T14:47:58;2.33;;;2.13;;
19482;SDS011;9882;51.166;6.992;2024-01-15T14:50:26;2.33;;;1.90;;
19482;SDS011;9882;51.166;6.992;2024-01-15T14:52:59;5.93;;;3.03;;
19482;SDS011;9882;51.166;6.992;2024-01-15T14:55:35;6.45;;;2.65;;
19482;SDS011;9882;51.166;6.992;2024-01-15T14:58:03;4.03;;;2.40;;
19482;SDS011;9882;51.166;6.992;2024-01-15T15:00:32;4.97;;;2.22;;
19482;SDS011;9882;51.166;6.992;2024-01-15T15:03:02;3.38;;;2.53;;
19482;SDS011;9882;51.166;6.992;2024-01-15T15:05:31;2.42;;;2.22;;
19482;SDS011;9882;51.166;6.992;2024-01-15T15:08:01;6.60;;;3.58;;
19482;SDS011;9882;51.166;6.992;2024-01-15T15:10:31;3.83;;;2.38;;